Ulm, Montana
Current Conditions -  °F | °C
As of 10:53 AM on Monday 22 Dec 2014 (Local Time) from KGTF Reporting Station
Overcast Overcast  
Wind Chill: 28°   Ceiling: 11000
Heat Index: 37°   Visibility: 10mi
Dew Point: 24°   Wind: 15mph
Humidity: 59%   Direction: 270°W
Pressure: 29.85"   Gusts: NA
Location:  47.43°N, 111.51°W
Report Text: KGTF 221753Z 27013KT 10SM OVC110 03/M04 A2985 RMK AO2 SLP145 T00281044 10028 21022 53022
Loading
Personal Weather Stations






























Interactive Weather Map New forecast layout! Learn more

10-Day Weather Forecast

Advertisements
Track Severe Weather on mobile